Time;durP1;ratioP1;P1;durP2;ratioP2;P2;SDS_P1;SDS_P2;PMS_P1;PMS_P2;Temp;Humidity;BMP_temperature;BMP_pressure;BME280_temperature;BME280_humidity;BME280_pressure;Samples;Min_cycle;Max_cycle;Signal;HPM_P1;HPM_P2
2022/01/10 00:02:06;;;;;;;8.75;5.15;;;;;;;;;;6272656;22;20004;-65
2022/01/10 00:04:33;;;;;;;7.43;5.65;;;;;;;;;;6272657;22;20010;-65
2022/01/10 00:06:59;;;;;;;9.48;4.85;;;;;;;;;;6272053;22;20008;-65
2022/01/10 00:09:25;;;;;;;6.38;4.72;;;;;;;;;;6273855;22;20107;-63
2022/01/10 00:11:51;;;;;;;9.00;4.40;;;;;;;;;;6272689;22;20010;-63
2022/01/10 00:14:17;;;;;;;7.18;4.28;;;;;;;;;;6274101;22;20446;-64
2022/01/10 00:16:43;;;;;;;8.45;4.57;;;;;;;;;;6272195;22;20075;-64
2022/01/10 00:19:09;;;;;;;9.52;4.88;;;;;;;;;;6274252;22;20066;-65
2022/01/10 00:21:35;;;;;;;5.40;3.60;;;;;;;;;;6272291;22;20338;-67
2022/01/10 00:24:01;;;;;;;7.57;4.50;;;;;;;;;;6273305;22;20007;-65
2022/01/10 00:26:27;;;;;;;6.75;3.90;;;;;;;;;;6271574;22;20045;-64
2022/01/10 00:28:53;;;;;;;6.05;3.90;;;;;;;;;;6273608;22;20018;-64
2022/01/10 00:31:19;;;;;;;8.93;4.22;;;;;;;;;;6272217;22;20070;-65
2022/01/10 00:33:45;;;;;;;6.90;3.80;;;;;;;;;;6273009;22;20007;-65
2022/01/10 00:36:12;;;;;;;6.47;4.85;;;;;;;;;;6271426;22;20195;-64
2022/01/10 00:38:38;;;;;;;5.85;3.42;;;;;;;;;;6273938;22;20004;-64
2022/01/10 00:41:04;;;;;;;5.53;3.50;;;;;;;;;;6272081;22;20000;-65
2022/01/10 00:43:39;;;;;;;5.95;3.38;;;;;;;;;;6274517;22;20073;-65
2022/01/10 00:46:05;;;;;;;4.38;3.35;;;;;;;;;;6272420;22;20450;-64
2022/01/10 00:48:31;;;;;;;6.18;3.38;;;;;;;;;;6273210;22;20053;-64
2022/01/10 00:50:57;;;;;;;5.95;3.28;;;;;;;;;;6272026;22;19999;-65
2022/01/10 00:53:25;;;;;;;10.63;3.70;;;;;;;;;;6272759;22;20386;-64
2022/01/10 00:55:51;;;;;;;6.95;3.47;;;;;;;;;;6272156;22;20000;-63
2022/01/10 00:58:17;;;;;;;5.40;3.25;;;;;;;;;;6271727;22;20003;-64
2022/01/10 01:00:43;;;;;;;4.20;2.65;;;;;;;;;;6271772;22;20067;-64
2022/01/10 01:03:09;;;;;;;3.30;2.33;;;;;;;;;;6271911;22;19999;-63
2022/01/10 01:05:40;;;;;;;3.17;2.42;;;;;;;;;;6272810;22;20010;-64
2022/01/10 01:08:08;;;;;;;3.88;2.28;;;;;;;;;;6272645;22;20038;-65
2022/01/10 01:24:02;;;;;;;2.53;1.80;;;;;;;;;;6210582;22;20018;-64
2022/01/10 01:26:29;;;;;;;2.70;1.52;;;;;;;;;;6272567;22;20042;-63
2022/01/10 01:28:56;;;;;;;2.20;1.98;;;;;;;;;;6272351;22;20016;-66
2022/01/10 01:31:22;;;;;;;2.33;1.70;;;;;;;;;;6272508;22;20078;-64
2022/01/10 01:33:48;;;;;;;1.58;1.40;;;;;;;;;;6272087;22;20004;-64
2022/01/10 01:36:16;;;;;;;3.20;1.60;;;;;;;;;;6272193;22;20071;-62
2022/01/10 01:38:43;;;;;;;1.98;1.88;;;;;;;;;;6272035;22;20084;-64
2022/01/10 01:43:48;;;;;;;1.63;1.52;;;;;;;;;;6283686;22;20008;-65
2022/01/10 01:46:14;;;;;;;1.40;1.30;;;;;;;;;;6272239;22;20457;-65
2022/01/10 01:48:41;;;;;;;2.60;1.65;;;;;;;;;;6272695;22;20469;-66
2022/01/10 01:51:07;;;;;;;2.67;2.50;;;;;;;;;;6271962;22;20335;-64
2022/01/10 01:53:33;;;;;;;2.13;1.50;;;;;;;;;;6271445;22;20067;-65
2022/01/10 01:55:59;;;;;;;3.47;1.70;;;;;;;;;;6273892;22;20008;-64
2022/01/10 01:58:26;;;;;;;1.58;1.48;;;;;;;;;;6271336;22;20293;-64
2022/01/10 02:00:53;;;;;;;1.35;1.25;;;;;;;;;;6272262;22;20004;-69
2022/01/10 02:03:19;;;;;;;1.38;1.27;;;;;;;;;;6271863;22;20007;-63
2022/01/10 02:05:45;;;;;;;1.65;1.50;;;;;;;;;;6272307;22;20086;-64
2022/01/10 02:08:11;;;;;;;1.85;1.70;;;;;;;;;;6271255;22;20476;-64
2022/01/10 02:10:38;;;;;;;1.27;1.20;;;;;;;;;;6270636;22;20004;-64
2022/01/10 02:13:04;;;;;;;2.17;1.25;;;;;;;;;;6272738;22;20000;-65
2022/01/10 02:15:51;;;;;;;1.40;1.30;;;;;;;;;;6271970;22;20006;-65
2022/01/10 02:18:20;;;;;;;1.48;1.30;;;;;;;;;;6272789;22;20012;-63
2022/01/10 02:20:46;;;;;;;1.90;1.25;;;;;;;;;;6270375;22;20069;-64
2022/01/10 02:23:13;;;;;;;1.05;1.05;;;;;;;;;;6272481;22;20022;-64
2022/01/10 02:25:39;;;;;;;2.00;1.52;;;;;;;;;;6273093;22;20030;-64
2022/01/10 02:28:06;;;;;;;1.50;1.40;;;;;;;;;;6270975;22;20062;-64
2022/01/10 02:30:32;;;;;;;1.65;1.55;;;;;;;;;;6272750;22;20007;-64
2022/01/10 02:33:00;;;;;;;1.17;1.10;;;;;;;;;;6271324;22;20071;-65
2022/01/10 02:35:33;;;;;;;1.40;1.30;;;;;;;;;;6271858;22;20004;-66
2022/01/10 02:38:00;;;;;;;1.77;1.30;;;;;;;;;;6271326;22;20083;-66
2022/01/10 02:40:28;;;;;;;1.20;1.20;;;;;;;;;;6271073;22;20004;-65
2022/01/10 02:42:54;;;;;;;1.38;1.27;;;;;;;;;;6271810;22;20092;-64
2022/01/10 02:45:21;;;;;;;1.25;1.17;;;;;;;;;;6272052;22;20004;-63
2022/01/10 02:47:48;;;;;;;1.38;1.27;;;;;;;;;;6272528;22;20029;-64
2022/01/10 02:50:14;;;;;;;1.30;1.20;;;;;;;;;;6273603;22;20030;-64
2022/01/10 02:52:41;;;;;;;1.40;1.30;;;;;;;;;;6275406;22;20068;-65
2022/01/10 02:55:08;;;;;;;2.45;1.33;;;;;;;;;;6273998;22;20027;-64
2022/01/10 02:57:35;;;;;;;1.40;1.30;;;;;;;;;;6275757;22;20003;-65
2022/01/10 03:00:02;;;;;;;1.63;1.52;;;;;;;;;;6274137;22;20369;-64
2022/01/10 03:02:32;;;;;;;1.20;1.20;;;;;;;;;;6275222;22;20003;-68
2022/01/10 03:04:58;;;;;;;1.50;1.40;;;;;;;;;;6274733;22;20008;-64
2022/01/10 03:07:24;;;;;;;1.63;1.50;;;;;;;;;;6275280;22;20000;-64
2022/01/10 03:09:51;;;;;;;1.10;1.10;;;;;;;;;;6274764;22;20003;-66
2022/01/10 03:12:17;;;;;;;1.60;1.50;;;;;;;;;;6275570;22;20023;-67
2022/01/10 03:14:44;;;;;;;1.40;1.30;;;;;;;;;;6273336;22;20000;-64
2022/01/10 03:17:10;;;;;;;1.50;1.40;;;;;;;;;;6274808;22;20078;-66
2022/01/10 03:19:37;;;;;;;1.35;1.25;;;;;;;;;;6274280;22;20297;-65
2022/01/10 03:22:03;;;;;;;2.03;1.60;;;;;;;;;;6273887;22;20495;-64
2022/01/10 03:24:30;;;;;;;1.42;1.33;;;;;;;;;;6274771;22;20004;-64
2022/01/10 03:26:56;;;;;;;2.47;1.55;;;;;;;;;;6273843;22;20038;-65
2022/01/10 03:29:22;;;;;;;1.50;1.40;;;;;;;;;;6274527;22;20012;-65
2022/01/10 03:31:48;;;;;;;1.67;1.58;;;;;;;;;;6274795;22;20057;-65
2022/01/10 03:34:14;;;;;;;1.95;1.35;;;;;;;;;;6273344;22;20000;-64
2022/01/10 03:36:41;;;;;;;1.95;1.48;;;;;;;;;;6273896;22;20006;-64
2022/01/10 03:39:07;;;;;;;1.60;1.50;;;;;;;;;;6274726;22;20050;-64
2022/01/10 03:41:35;;;;;;;2.75;1.60;;;;;;;;;;6274292;22;20851;-65
2022/01/10 03:44:01;;;;;;;1.50;1.40;;;;;;;;;;6272661;22;20015;-65
2022/01/10 03:46:28;;;;;;;1.75;1.60;;;;;;;;;;6273818;22;20169;-65
2022/01/10 03:48:54;;;;;;;2.47;1.80;;;;;;;;;;6274313;22;20002;-65
2022/01/10 03:51:21;;;;;;;2.53;1.75;;;;;;;;;;6274433;22;20351;-65
2022/01/10 03:53:47;;;;;;;1.80;1.67;;;;;;;;;;6274343;22;20000;-64
2022/01/10 03:56:13;;;;;;;4.63;1.88;;;;;;;;;;6275016;22;20010;-65
2022/01/10 03:58:39;;;;;;;3.13;1.80;;;;;;;;;;6273589;22;20003;-65
2022/01/10 04:01:08;;;;;;;3.38;1.98;;;;;;;;;;6274233;22;20004;-65
2022/01/10 04:03:34;;;;;;;3.90;2.00;;;;;;;;;;6274346;22;20034;-66
2022/01/10 04:06:00;;;;;;;2.35;1.95;;;;;;;;;;6272443;22;20010;-65
2022/01/10 04:08:26;;;;;;;3.42;2.13;;;;;;;;;;6268338;22;20015;-65
2022/01/10 04:10:53;;;;;;;7.55;2.63;;;;;;;;;;6273224;22;20010;-67
2022/01/10 04:13:19;;;;;;;3.70;2.13;;;;;;;;;;6273435;22;20002;-64
2022/01/10 04:15:45;;;;;;;3.38;2.50;;;;;;;;;;6273558;22;20382;-66
2022/01/10 04:18:11;;;;;;;4.32;2.15;;;;;;;;;;6273176;22;20000;-64
2022/01/10 04:20:37;;;;;;;5.45;2.40;;;;;;;;;;6273125;22;20061;-65
2022/01/10 04:23:03;;;;;;;5.78;3.10;;;;;;;;;;6273905;22;20660;-64
2022/01/10 04:25:29;;;;;;;6.00;2.45;;;;;;;;;;6273100;22;20000;-65
2022/01/10 04:27:56;;;;;;;11.32;3.75;;;;;;;;;;6273708;22;20012;-64
2022/01/10 04:30:22;;;;;;;10.27;2.90;;;;;;;;;;6274166;22;20004;-65
2022/01/10 04:32:48;;;;;;;7.30;3.30;;;;;;;;;;6273511;22;20015;-65
2022/01/10 04:35:14;;;;;;;8.98;3.33;;;;;;;;;;6273475;22;20366;-64
2022/01/10 04:37:43;;;;;;;14.82;3.83;;;;;;;;;;6274908;22;20031;-65
2022/01/10 04:40:11;;;;;;;6.97;3.25;;;;;;;;;;6271487;22;20320;-66
2022/01/10 04:42:37;;;;;;;7.93;2.95;;;;;;;;;;6273083;22;20004;-65
2022/01/10 04:45:03;;;;;;;18.15;3.75;;;;;;;;;;6271528;22;20023;-63
2022/01/10 04:47:29;;;;;;;9.80;3.65;;;;;;;;;;6272500;22;20434;-65
2022/01/10 04:52:25;;;;;;;12.60;4.43;;;;;;;;;;6272917;22;20358;-65
2022/01/10 04:54:51;;;;;;;10.90;3.67;;;;;;;;;;6272705;22;20003;-68
2022/01/10 04:57:17;;;;;;;12.18;4.03;;;;;;;;;;6273671;22;20008;-64
2022/01/10 04:59:43;;;;;;;16.67;4.15;;;;;;;;;;6273483;22;20003;-64
2022/01/10 05:02:10;;;;;;;13.98;4.50;;;;;;;;;;6272650;22;20434;-65
2022/01/10 05:04:36;;;;;;;23.48;4.57;;;;;;;;;;6272190;22;20004;-64
2022/01/10 05:07:02;;;;;;;18.52;6.15;;;;;;;;;;6272861;22;20018;-65
2022/01/10 05:09:28;;;;;;;18.00;5.85;;;;;;;;;;6270544;22;20079;-65
2022/01/10 05:11:55;;;;;;;17.17;4.88;;;;;;;;;;6272838;22;20027;-65
2022/01/10 05:14:21;;;;;;;18.30;4.30;;;;;;;;;;6272906;22;20406;-65
2022/01/10 05:16:47;;;;;;;19.02;5.45;;;;;;;;;;6274289;22;19996;-65
2022/01/10 05:19:13;;;;;;;18.83;5.15;;;;;;;;;;6272706;22;20007;-65
2022/01/10 05:21:40;;;;;;;16.23;5.00;;;;;;;;;;6273230;22;20004;-66
2022/01/10 05:24:07;;;;;;;13.80;3.88;;;;;;;;;;6273206;22;20000;-64
2022/01/10 05:26:33;;;;;;;17.92;4.90;;;;;;;;;;6271348;22;20359;-64
2022/01/10 05:29:00;;;;;;;17.05;5.55;;;;;;;;;;6273211;22;20086;-66
2022/01/10 05:31:28;;;;;;;17.08;4.50;;;;;;;;;;6272442;22;20004;-65
2022/01/10 05:33:54;;;;;;;15.35;5.90;;;;;;;;;;6273078;22;19999;-65
2022/01/10 05:36:20;;;;;;;20.20;5.25;;;;;;;;;;6272248;22;20083;-66
2022/01/10 05:38:46;;;;;;;27.80;5.35;;;;;;;;;;6271187;22;20011;-64
2022/01/10 05:41:13;;;;;;;16.30;4.32;;;;;;;;;;6272882;22;20412;-65
2022/01/10 05:43:39;;;;;;;20.67;4.53;;;;;;;;;;6272812;22;19999;-65
2022/01/10 05:46:08;;;;;;;13.32;5.05;;;;;;;;;;6272186;22;20610;-65
2022/01/10 05:48:36;;;;;;;14.10;4.63;;;;;;;;;;6271939;22;20010;-65
2022/01/10 05:51:02;;;;;;;21.55;6.22;;;;;;;;;;6273825;22;20006;-65
2022/01/10 05:53:28;;;;;;;20.30;4.78;;;;;;;;;;6271088;22;20008;-65
2022/01/10 05:55:54;;;;;;;17.60;5.75;;;;;;;;;;6272680;22;19999;-64
2022/01/10 05:58:20;;;;;;;24.13;4.68;;;;;;;;;;6272856;22;20462;-64
2022/01/10 06:00:47;;;;;;;20.00;5.70;;;;;;;;;;6272641;22;20004;-65
2022/01/10 06:03:14;;;;;;;24.17;6.18;;;;;;;;;;6270132;22;20110;-64
2022/01/10 06:05:40;;;;;;;19.85;4.72;;;;;;;;;;6273272;22;20075;-66
2022/01/10 06:08:08;;;;;;;21.70;5.32;;;;;;;;;;6270978;22;20011;-64
2022/01/10 06:10:35;;;;;;;13.65;4.85;;;;;;;;;;6272930;22;19995;-65
2022/01/10 06:13:01;;;;;;;23.27;5.97;;;;;;;;;;6270557;22;20008;-64
2022/01/10 06:15:27;;;;;;;18.08;5.38;;;;;;;;;;6272603;22;20071;-65
2022/01/10 06:17:53;;;;;;;23.83;5.72;;;;;;;;;;6270871;22;20000;-65
2022/01/10 06:20:20;;;;;;;12.35;5.03;;;;;;;;;;6272500;22;20026;-65
2022/01/10 06:22:46;;;;;;;19.60;5.22;;;;;;;;;;6270606;22;20034;-65
2022/01/10 06:25:14;;;;;;;18.83;5.07;;;;;;;;;;6271432;22;20091;-66
2022/01/10 06:27:40;;;;;;;15.98;4.55;;;;;;;;;;6271162;22;20022;-65
2022/01/10 06:30:07;;;;;;;17.75;4.72;;;;;;;;;;6272181;22;20559;-65
2022/01/10 06:32:33;;;;;;;16.00;5.53;;;;;;;;;;6270968;22;20008;-64
2022/01/10 06:34:59;;;;;;;13.68;4.78;;;;;;;;;;6272532;22;20000;-65
2022/01/10 06:37:26;;;;;;;15.02;5.18;;;;;;;;;;6271454;22;20006;-63
2022/01/10 06:39:52;;;;;;;14.35;4.53;;;;;;;;;;6272152;22;20034;-65
2022/01/10 06:42:19;;;;;;;10.90;4.03;;;;;;;;;;6270560;22;20087;-65
2022/01/10 06:44:45;;;;;;;18.33;4.22;;;;;;;;;;6269773;22;20014;-64
2022/01/10 06:47:12;;;;;;;16.08;4.13;;;;;;;;;;6271386;22;20000;-64
2022/01/10 06:49:38;;;;;;;11.50;4.03;;;;;;;;;;6271986;22;20008;-65
2022/01/10 06:52:04;;;;;;;12.88;4.13;;;;;;;;;;6271356;22;20000;-65
2022/01/10 06:54:31;;;;;;;11.50;3.97;;;;;;;;;;6271719;22;20000;-64
2022/01/10 06:57:00;;;;;;;9.05;3.58;;;;;;;;;;6271725;22;20034;-65
2022/01/10 06:59:26;;;;;;;11.60;3.63;;;;;;;;;;6271483;22;20014;-65
2022/01/10 07:01:53;;;;;;;15.73;4.10;;;;;;;;;;6272180;22;19999;-63
2022/01/10 07:04:19;;;;;;;12.35;4.30;;;;;;;;;;6272138;22;20319;-64
2022/01/10 07:06:47;;;;;;;11.55;3.70;;;;;;;;;;6270202;22;20015;-64
2022/01/10 07:09:13;;;;;;;13.15;3.67;;;;;;;;;;6270979;22;20026;-64
2022/01/10 07:11:39;;;;;;;11.02;3.47;;;;;;;;;;6269546;22;20007;-69
2022/01/10 07:14:05;;;;;;;8.90;3.33;;;;;;;;;;6272178;22;20006;-65
2022/01/10 07:16:31;;;;;;;14.23;3.35;;;;;;;;;;6270165;22;20000;-66
2022/01/10 07:18:57;;;;;;;5.55;2.83;;;;;;;;;;6273029;22;20022;-66
2022/01/10 07:21:24;;;;;;;6.80;2.75;;;;;;;;;;6271530;22;19996;-66
2022/01/10 07:23:50;;;;;;;7.07;3.88;;;;;;;;;;6271907;22;20007;-66
2022/01/10 07:26:16;;;;;;;13.57;4.10;;;;;;;;;;6270673;22;20015;-64
2022/01/10 07:28:42;;;;;;;8.98;3.00;;;;;;;;;;6272295;22;20430;-65
2022/01/10 07:31:08;;;;;;;12.98;3.75;;;;;;;;;;6269477;22;20434;-65
2022/01/10 07:33:35;;;;;;;6.63;2.75;;;;;;;;;;6272525;22;20015;-65
2022/01/10 07:36:02;;;;;;;5.03;2.50;;;;;;;;;;6270861;22;20091;-65
2022/01/10 07:38:28;;;;;;;8.52;2.90;;;;;;;;;;6273681;22;20031;-65
2022/01/10 07:40:54;;;;;;;5.75;2.70;;;;;;;;;;6271943;22;20008;-65
2022/01/10 07:43:20;;;;;;;6.72;2.58;;;;;;;;;;6273713;22;20027;-65
2022/01/10 07:45:46;;;;;;;4.75;2.70;;;;;;;;;;6271379;22;20018;-64
2022/01/10 07:48:12;;;;;;;10.70;2.90;;;;;;;;;;6273926;22;20032;-65
2022/01/10 07:50:39;;;;;;;8.82;3.30;;;;;;;;;;6272486;22;19999;-64
2022/01/10 07:53:05;;;;;;;3.63;2.72;;;;;;;;;;6273030;22;20035;-64
2022/01/10 07:55:31;;;;;;;6.80;2.42;;;;;;;;;;6272588;22;20488;-65
2022/01/10 07:57:57;;;;;;;5.78;2.75;;;;;;;;;;6272064;22;20493;-65
2022/01/10 08:00:23;;;;;;;8.40;3.78;;;;;;;;;;6273020;22;20020;-64
2022/01/10 08:02:49;;;;;;;8.57;3.20;;;;;;;;;;6272308;22;20422;-64
2022/01/10 08:05:15;;;;;;;7.78;2.90;;;;;;;;;;6272915;22;20070;-66
2022/01/10 08:07:41;;;;;;;5.68;2.80;;;;;;;;;;6271346;22;20665;-65
2022/01/10 08:10:08;;;;;;;5.90;3.20;;;;;;;;;;6272309;22;20330;-65
2022/01/10 08:12:34;;;;;;;6.22;3.08;;;;;;;;;;6271957;22;20384;-64
2022/01/10 08:15:00;;;;;;;5.03;2.40;;;;;;;;;;6271525;22;19999;-65
2022/01/10 08:17:26;;;;;;;6.50;2.40;;;;;;;;;;6272722;22;20062;-65
2022/01/10 08:19:52;;;;;;;7.28;2.80;;;;;;;;;;6272675;22;20000;-65
2022/01/10 08:22:18;;;;;;;4.30;2.90;;;;;;;;;;6272267;22;20004;-65
2022/01/10 08:24:44;;;;;;;3.88;2.58;;;;;;;;;;6271095;22;20007;-65
2022/01/10 08:27:14;;;;;;;6.25;2.72;;;;;;;;;;6270867;22;20037;-65
2022/01/10 08:29:40;;;;;;;8.88;2.90;;;;;;;;;;6272655;22;20015;-65
2022/01/10 08:32:06;;;;;;;8.45;3.22;;;;;;;;;;6271734;22;20003;-65
2022/01/10 08:34:32;;;;;;;4.13;2.67;;;;;;;;;;6272603;22;20426;-67
2022/01/10 08:36:58;;;;;;;6.57;2.88;;;;;;;;;;6263542;22;20047;-66
2022/01/10 08:39:24;;;;;;;10.82;3.03;;;;;;;;;;6267483;22;20075;-64
2022/01/10 08:41:50;;;;;;;5.82;2.70;;;;;;;;;;6265169;22;20011;-66
2022/01/10 08:44:17;;;;;;;4.13;2.90;;;;;;;;;;6265854;22;20004;-66
2022/01/10 08:46:44;;;;;;;8.85;3.40;;;;;;;;;;6265074;22;20010;-68
2022/01/10 08:49:12;;;;;;;7.03;3.03;;;;;;;;;;6266111;22;19999;-66
2022/01/10 08:51:38;;;;;;;9.25;3.75;;;;;;;;;;6262493;22;20094;-66
2022/01/10 08:54:05;;;;;;;8.25;3.17;;;;;;;;;;6261630;22;20010;-65
2022/01/10 08:56:32;;;;;;;5.78;3.08;;;;;;;;;;6262569;22;20079;-64
2022/01/10 08:58:58;;;;;;;6.40;2.70;;;;;;;;;;6262594;22;20075;-65
2022/01/10 09:01:24;;;;;;;8.70;3.22;;;;;;;;;;6263038;22;20003;-65
2022/01/10 09:03:50;;;;;;;11.07;3.70;;;;;;;;;;6264072;22;20049;-66
2022/01/10 09:06:17;;;;;;;8.35;2.78;;;;;;;;;;6265347;22;20004;-65
2022/01/10 09:08:43;;;;;;;9.30;3.13;;;;;;;;;;6265400;22;20019;-64
2022/01/10 09:11:10;;;;;;;10.70;3.25;;;;;;;;;;6267220;22;20000;-64
2022/01/10 09:13:36;;;;;;;7.13;3.13;;;;;;;;;;6266178;22;20004;-65
2022/01/10 09:16:03;;;;;;;8.65;3.40;;;;;;;;;;6266066;22;20433;-66
2022/01/10 09:18:29;;;;;;;7.90;3.30;;;;;;;;;;6266830;22;20074;-66
2022/01/10 09:20:55;;;;;;;9.88;3.22;;;;;;;;;;6269557;22;20010;-65
2022/01/10 09:23:25;;;;;;;7.78;3.40;;;;;;;;;;6270717;22;20316;-65
2022/01/10 09:25:51;;;;;;;10.40;3.13;;;;;;;;;;6269984;22;20014;-65
2022/01/10 09:28:18;;;;;;;6.25;3.13;;;;;;;;;;6264813;22;20015;-65
2022/01/10 09:30:44;;;;;;;6.43;3.42;;;;;;;;;;6266104;22;20361;-65
2022/01/10 09:33:10;;;;;;;7.88;3.45;;;;;;;;;;6266929;22;20000;-65
2022/01/10 09:35:36;;;;;;;9.45;3.15;;;;;;;;;;6266753;22;20081;-65
2022/01/10 09:38:03;;;;;;;7.65;2.97;;;;;;;;;;6266199;22;20082;-66
2022/01/10 09:40:29;;;;;;;8.48;3.00;;;;;;;;;;6266760;22;20078;-66
2022/01/10 09:42:55;;;;;;;7.80;3.03;;;;;;;;;;6265312;22;20011;-65
2022/01/10 09:45:21;;;;;;;6.32;3.10;;;;;;;;;;6266426;22;20064;-66
2022/01/10 09:47:48;;;;;;;7.07;3.38;;;;;;;;;;6266546;22;20003;-66
2022/01/10 09:50:17;;;;;;;7.40;3.38;;;;;;;;;;6266171;22;20004;-67
2022/01/10 09:52:44;;;;;;;9.82;3.40;;;;;;;;;;6265869;22;20063;-64
2022/01/10 09:55:10;;;;;;;8.48;5.10;;;;;;;;;;6266960;22;20022;-64
2022/01/10 09:57:36;;;;;;;9.93;3.67;;;;;;;;;;6267300;22;20045;-66
2022/01/10 10:00:04;;;;;;;12.48;3.35;;;;;;;;;;6263521;22;20455;-67
2022/01/10 10:02:33;;;;;;;7.00;3.15;;;;;;;;;;6266257;22;20018;-67
2022/01/10 10:05:07;;;;;;;9.20;2.88;;;;;;;;;;6264525;22;20014;-66
2022/01/10 10:07:35;;;;;;;4.65;2.72;;;;;;;;;;6265214;22;20085;-66
2022/01/10 10:10:03;;;;;;;9.25;3.38;;;;;;;;;;6266187;22;20338;-66
2022/01/10 10:12:29;;;;;;;10.48;3.00;;;;;;;;;;6265017;22;20034;-67
2022/01/10 10:14:56;;;;;;;7.22;3.38;;;;;;;;;;6263534;22;20000;-66
2022/01/10 10:17:22;;;;;;;5.15;2.65;;;;;;;;;;6264229;22;20059;-67
2022/01/10 10:19:49;;;;;;;5.75;2.67;;;;;;;;;;6265978;22;20088;-65
2022/01/10 10:22:15;;;;;;;6.82;3.30;;;;;;;;;;6265350;22;20338;-66
2022/01/10 10:24:42;;;;;;;9.52;3.75;;;;;;;;;;6265587;22;20007;-67
2022/01/10 10:27:08;;;;;;;6.47;2.80;;;;;;;;;;6265775;22;20007;-66
2022/01/10 10:29:38;;;;;;;4.43;2.78;;;;;;;;;;6265307;22;20015;-67
2022/01/10 10:32:04;;;;;;;7.43;2.80;;;;;;;;;;6266972;22;20027;-66
2022/01/10 10:34:33;;;;;;;4.85;2.22;;;;;;;;;;6263589;22;20578;-66
2022/01/10 10:37:01;;;;;;;5.45;2.20;;;;;;;;;;6263168;22;20015;-66
2022/01/10 10:39:28;;;;;;;6.15;2.13;;;;;;;;;;6265322;22;20004;-66
2022/01/10 10:41:56;;;;;;;8.82;3.60;;;;;;;;;;6265163;22;20004;-67
2022/01/10 10:44:23;;;;;;;5.07;2.50;;;;;;;;;;6264158;22;20004;-66
2022/01/10 10:46:51;;;;;;;5.60;2.72;;;;;;;;;;6264559;22;20008;-66
2022/01/10 10:49:25;;;;;;;5.15;2.58;;;;;;;;;;6264748;22;20003;-65
2022/01/10 10:51:51;;;;;;;3.17;2.25;;;;;;;;;;6266742;22;20004;-69
2022/01/10 10:54:18;;;;;;;5.88;3.63;;;;;;;;;;6264047;22;20006;-67
2022/01/10 10:56:45;;;;;;;7.32;2.50;;;;;;;;;;6266030;22;20004;-66
2022/01/10 10:59:12;;;;;;;5.53;3.47;;;;;;;;;;6265704;22;20113;-65
2022/01/10 11:01:40;;;;;;;5.32;3.03;;;;;;;;;;6265824;22;20007;-66
2022/01/10 11:04:06;;;;;;;7.25;2.92;;;;;;;;;;6265148;22;19996;-65
2022/01/10 11:06:33;;;;;;;3.63;2.72;;;;;;;;;;6265169;22;20003;-66
2022/01/10 11:09:02;;;;;;;7.05;2.80;;;;;;;;;;6265790;22;20501;-65
2022/01/10 11:11:28;;;;;;;5.28;2.75;;;;;;;;;;6266740;22;20007;-66
2022/01/10 11:13:56;;;;;;;3.88;2.53;;;;;;;;;;6266931;22;20007;-67
2022/01/10 11:16:23;;;;;;;4.38;2.45;;;;;;;;;;6266735;22;20003;-64
2022/01/10 11:18:49;;;;;;;6.47;2.28;;;;;;;;;;6265874;22;20008;-67
2022/01/10 11:21:16;;;;;;;4.60;2.63;;;;;;;;;;6266283;22;20012;-65
2022/01/10 11:23:44;;;;;;;7.40;2.50;;;;;;;;;;6269152;22;20011;-65
2022/01/10 11:26:11;;;;;;;4.03;2.45;;;;;;;;;;6265906;22;20039;-65
2022/01/10 11:28:56;;;;;;;4.20;2.55;;;;;;;;;;6267940;22;20506;-66
2022/01/10 11:31:24;;;;;;;4.68;2.65;;;;;;;;;;6264517;22;20008;-66
2022/01/10 11:33:50;;;;;;;6.10;2.45;;;;;;;;;;6267622;22;20638;-65
2022/01/10 11:36:18;;;;;;;4.93;2.47;;;;;;;;;;6265327;22;20107;-66
2022/01/10 11:38:49;;;;;;;4.45;2.17;;;;;;;;;;6267628;22;20003;-67
2022/01/10 11:41:18;;;;;;;4.55;2.65;;;;;;;;;;6265730;22;20008;-65
2022/01/10 11:43:44;;;;;;;5.55;2.60;;;;;;;;;;6267574;22;20405;-68
2022/01/10 11:46:34;;;;;;;3.60;2.63;;;;;;;;;;6267115;22;20004;-67
2022/01/10 11:49:03;;;;;;;6.10;2.65;;;;;;;;;;6266656;22;20004;-68
2022/01/10 11:51:39;;;;;;;4.05;2.50;;;;;;;;;;6265729;22;20012;-68
2022/01/10 11:54:13;;;;;;;4.80;2.25;;;;;;;;;;6265637;22;20008;-66
2022/01/10 11:56:40;;;;;;;4.25;2.00;;;;;;;;;;6268943;22;20003;-67
2022/01/10 11:59:11;;;;;;;5.43;2.30;;;;;;;;;;6268648;22;20079;-67
2022/01/10 12:01:38;;;;;;;5.13;3.00;;;;;;;;;;6269002;22;20000;-67
2022/01/10 12:04:05;;;;;;;4.70;2.15;;;;;;;;;;6266291;22;20042;-67
2022/01/10 12:06:31;;;;;;;6.63;2.60;;;;;;;;;;6268409;22;20788;-67
2022/01/10 12:08:58;;;;;;;3.95;2.15;;;;;;;;;;6265693;22;20078;-66
2022/01/10 12:11:25;;;;;;;3.67;1.95;;;;;;;;;;6265777;22;20000;-68
2022/01/10 12:13:52;;;;;;;4.22;2.55;;;;;;;;;;6266187;22;20057;-67
2022/01/10 12:16:19;;;;;;;4.32;2.30;;;;;;;;;;6267132;22;20011;-68
2022/01/10 12:18:45;;;;;;;3.03;1.80;;;;;;;;;;6267129;22;20014;-69
2022/01/10 12:21:11;;;;;;;7.78;2.45;;;;;;;;;;6267169;22;20011;-69
2022/01/10 12:23:37;;;;;;;5.13;2.83;;;;;;;;;;6266953;22;20014;-69
2022/01/10 12:26:03;;;;;;;5.75;2.58;;;;;;;;;;6267416;22;20003;-67
2022/01/10 12:28:29;;;;;;;5.32;2.50;;;;;;;;;;6266052;22;20064;-69
2022/01/10 12:31:01;;;;;;;4.53;2.47;;;;;;;;;;6266832;22;20331;-69
2022/01/10 12:33:27;;;;;;;6.38;2.72;;;;;;;;;;6266395;22;19999;-69
2022/01/10 12:35:53;;;;;;;3.40;2.28;;;;;;;;;;6267175;22;19996;-68
2022/01/10 12:38:20;;;;;;;4.85;2.00;;;;;;;;;;6264731;22;20323;-68
2022/01/10 12:40:48;;;;;;;3.13;2.05;;;;;;;;;;6265332;22;20042;-68
2022/01/10 12:43:15;;;;;;;4.55;2.25;;;;;;;;;;6265840;22;20529;-69
2022/01/10 12:45:41;;;;;;;6.15;2.28;;;;;;;;;;6267020;22;20008;-68
2022/01/10 12:48:14;;;;;;;5.05;2.53;;;;;;;;;;6264556;22;20003;-69
2022/01/10 12:50:41;;;;;;;5.35;2.40;;;;;;;;;;6266739;22;20413;-68
2022/01/10 12:53:08;;;;;;;5.65;2.00;;;;;;;;;;6265656;22;20004;-68
2022/01/10 12:55:34;;;;;;;4.38;2.17;;;;;;;;;;6266685;22;20006;-68
2022/01/10 12:58:00;;;;;;;3.28;2.10;;;;;;;;;;6265782;22;20007;-67
2022/01/10 13:00:27;;;;;;;3.30;2.30;;;;;;;;;;6264414;22;20018;-68
2022/01/10 13:02:53;;;;;;;4.13;2.75;;;;;;;;;;6265627;22;20026;-67
2022/01/10 13:05:20;;;;;;;5.55;2.63;;;;;;;;;;6267144;22;20434;-66
2022/01/10 13:07:49;;;;;;;3.95;2.35;;;;;;;;;;6266694;22;20497;-67
2022/01/10 13:10:24;;;;;;;3.17;2.03;;;;;;;;;;6266743;22;20310;-69
2022/01/10 13:12:51;;;;;;;4.47;2.38;;;;;;;;;;6264556;22;20438;-67
2022/01/10 13:15:17;;;;;;;4.40;2.40;;;;;;;;;;6267228;22;20054;-67
2022/01/10 13:18:03;;;;;;;4.35;2.38;;;;;;;;;;6267180;22;20023;-68
2022/01/10 13:20:32;;;;;;;4.90;3.00;;;;;;;;;;6266776;22;20018;-67
2022/01/10 13:23:06;;;;;;;4.60;2.47;;;;;;;;;;6266270;22;20083;-67
2022/01/10 13:25:33;;;;;;;5.70;2.50;;;;;;;;;;6264952;22;20114;-67
2022/01/10 13:28:01;;;;;;;7.38;2.50;;;;;;;;;;6263849;22;20027;-68
2022/01/10 13:30:29;;;;;;;4.32;2.40;;;;;;;;;;6265613;22;20346;-67
2022/01/10 13:32:57;;;;;;;4.82;2.40;;;;;;;;;;6267418;22;20004;-67
2022/01/10 13:35:24;;;;;;;4.95;3.08;;;;;;;;;;6267133;22;20010;-67
2022/01/10 13:37:58;;;;;;;5.05;2.65;;;;;;;;;;6267127;22;20389;-67
2022/01/10 13:40:25;;;;;;;3.95;2.10;;;;;;;;;;6265767;22;20037;-67
2022/01/10 13:42:59;;;;;;;4.70;2.40;;;;;;;;;;6267330;22;20030;-67
2022/01/10 13:45:48;;;;;;;4.07;3.03;;;;;;;;;;6264678;22;20067;-68
2022/01/10 13:48:19;;;;;;;4.50;3.05;;;;;;;;;;6266543;22;20409;-68
2022/01/10 13:50:47;;;;;;;8.40;5.22;;;;;;;;;;6267171;22;20593;-67
2022/01/10 13:53:16;;;;;;;4.80;2.70;;;;;;;;;;6265690;22;20004;-67
2022/01/10 13:55:43;;;;;;;5.68;2.90;;;;;;;;;;6266146;22;20034;-69
2022/01/10 13:58:26;;;;;;;5.80;2.50;;;;;;;;;;6265981;22;20384;-65
2022/01/10 14:01:00;;;;;;;4.35;2.65;;;;;;;;;;6265733;22;20031;-66
2022/01/10 14:03:28;;;;;;;5.18;2.85;;;;;;;;;;6266926;22;20285;-65
2022/01/10 14:06:13;;;;;;;5.05;2.42;;;;;;;;;;6266182;22;20423;-69
2022/01/10 14:08:40;;;;;;;5.80;2.85;;;;;;;;;;6266482;22;20039;-66
2022/01/10 14:11:07;;;;;;;10.20;5.18;;;;;;;;;;6267234;22;20098;-67
2022/01/10 14:13:34;;;;;;;4.70;3.35;;;;;;;;;;6265571;22;20074;-66
2022/01/10 14:16:00;;;;;;;3.10;2.08;;;;;;;;;;6263088;22;20091;-66
2022/01/10 14:18:26;;;;;;;3.38;2.30;;;;;;;;;;6266307;22;20004;-65
2022/01/10 14:20:52;;;;;;;7.20;2.47;;;;;;;;;;6264444;22;20089;-66
2022/01/10 14:23:19;;;;;;;3.47;2.72;;;;;;;;;;6265815;22;20596;-66
2022/01/10 14:25:46;;;;;;;3.15;2.13;;;;;;;;;;6267071;22;20008;-67
2022/01/10 14:28:12;;;;;;;3.55;2.50;;;;;;;;;;6263696;22;20011;-67
2022/01/10 14:30:38;;;;;;;5.10;3.30;;;;;;;;;;6266515;22;20000;-66
2022/01/10 14:33:06;;;;;;;7.22;4.60;;;;;;;;;;6266743;22;20024;-68
2022/01/10 14:35:32;;;;;;;10.55;5.85;;;;;;;;;;6265511;22;20003;-65
2022/01/10 14:37:58;;;;;;;8.50;4.47;;;;;;;;;;6264899;22;20053;-69
2022/01/10 14:40:24;;;;;;;11.75;7.55;;;;;;;;;;6264990;22;20083;-65
2022/01/10 14:42:50;;;;;;;16.50;8.60;;;;;;;;;;6266525;22;20014;-64
2022/01/10 14:45:18;;;;;;;65.15;29.83;;;;;;;;;;6265841;22;20008;-68
2022/01/10 14:47:44;;;;;;;26.92;12.30;;;;;;;;;;6266230;22;20008;-66
2022/01/10 14:50:15;;;;;;;59.58;27.85;;;;;;;;;;6265084;22;19995;-66
2022/01/10 14:52:41;;;;;;;18.13;9.82;;;;;;;;;;6268630;22;20051;-68
2022/01/10 14:55:08;;;;;;;11.30;6.95;;;;;;;;;;6266772;22;20064;-66
2022/01/10 14:57:34;;;;;;;8.20;6.25;;;;;;;;;;6267878;22;20015;-65
2022/01/10 15:00:00;;;;;;;10.65;7.95;;;;;;;;;;6267436;22;20053;-65